createdAt,value
2023-01-12T00:02:21.598Z,7.50
2023-01-12T00:04:49.343Z,5.95
2023-01-12T00:07:17.949Z,4.88
2023-01-12T00:09:45.745Z,4.75
2023-01-12T00:12:13.824Z,4.90
2023-01-12T00:14:41.024Z,3.85
2023-01-12T00:17:09.273Z,4.93
2023-01-12T00:19:39.026Z,8.73
2023-01-12T00:22:12.453Z,6.60
2023-01-12T00:24:42.467Z,5.13
2023-01-12T00:27:15.515Z,5.63
2023-01-12T00:29:42.943Z,6.15
2023-01-12T00:32:16.706Z,5.93
2023-01-12T00:34:45.576Z,5.50
2023-01-12T00:37:13.126Z,5.68
2023-01-12T00:39:45.880Z,8.80
2023-01-12T00:42:42.441Z,5.40
2023-01-12T00:45:22.336Z,3.65
2023-01-12T00:47:49.681Z,5.28
2023-01-12T00:50:19.256Z,6.10
2023-01-12T00:52:46.741Z,5.65
2023-01-12T00:55:14.339Z,4.60
2023-01-12T00:57:41.699Z,5.13
2023-01-12T01:00:09.364Z,6.80
2023-01-12T01:02:36.885Z,5.65
2023-01-12T01:05:04.501Z,7.82
2023-01-12T01:07:33.246Z,5.07
2023-01-12T01:10:00.443Z,6.38
2023-01-12T01:12:27.500Z,4.28
2023-01-12T01:14:54.897Z,5.53
2023-01-12T01:17:22.086Z,5.82
2023-01-12T01:19:49.235Z,3.60
2023-01-12T01:22:16.592Z,6.72
2023-01-12T01:24:43.820Z,5.35
2023-01-12T01:27:11.097Z,5.22
2023-01-12T01:29:38.307Z,5.35
2023-01-12T01:32:06.218Z,5.00
2023-01-12T01:34:34.226Z,5.32
2023-01-12T01:37:01.308Z,3.80
2023-01-12T01:39:28.626Z,3.28
2023-01-12T01:41:55.805Z,5.63
2023-01-12T01:44:32.069Z,4.45
2023-01-12T01:47:12.356Z,4.68
2023-01-12T01:49:52.626Z,4.28
2023-01-12T01:52:40.225Z,4.10
2023-01-12T01:55:17.252Z,4.78
2023-01-12T01:58:16.953Z,3.65
2023-01-12T02:00:45.041Z,7.32
2023-01-12T02:03:13.523Z,5.43
2023-01-12T02:05:46.332Z,4.28
2023-01-12T02:08:22.776Z,4.93
2023-01-12T02:10:52.940Z,4.88
2023-01-12T02:13:41.430Z,6.95
2023-01-12T02:16:28.767Z,4.78
2023-01-12T02:19:13.195Z,5.28
2023-01-12T02:22:10.279Z,6.22
2023-01-12T02:25:14.456Z,4.88
2023-01-12T02:28:05.612Z,5.70
2023-01-12T02:31:31.648Z,8.27
2023-01-12T02:34:04.216Z,8.80
2023-01-12T02:36:34.217Z,5.25
2023-01-12T02:39:14.991Z,6.65
2023-01-12T02:42:29.097Z,4.93
2023-01-12T02:45:20.030Z,7.18
2023-01-12T02:48:08.654Z,4.03
2023-01-12T02:51:00.429Z,7.93
2023-01-12T02:53:40.098Z,4.25
2023-01-12T02:56:09.093Z,4.43
2023-01-12T02:58:54.102Z,5.05
2023-01-12T03:01:24.542Z,4.55
2023-01-12T03:04:00.882Z,6.13
2023-01-12T03:06:58.249Z,4.53
2023-01-12T03:09:28.882Z,4.35
2023-01-12T03:12:04.230Z,5.13
2023-01-12T03:14:35.577Z,7.03
2023-01-12T03:17:10.028Z,6.63
2023-01-12T03:19:40.252Z,5.10
2023-01-12T03:22:14.420Z,6.95
2023-01-12T03:24:50.139Z,5.78
2023-01-12T03:27:35.086Z,6.85
2023-01-12T03:30:29.502Z,5.63
2023-01-12T03:32:57.524Z,5.25
2023-01-12T03:35:27.992Z,6.10
2023-01-12T03:38:04.480Z,4.80
2023-01-12T03:40:43.920Z,4.63
2023-01-12T03:43:39.251Z,4.15
2023-01-12T03:46:24.380Z,5.28
2023-01-12T03:49:14.524Z,6.95
2023-01-12T03:51:47.973Z,3.78
2023-01-12T03:54:19.922Z,4.07
2023-01-12T03:56:48.029Z,4.45
2023-01-12T03:59:15.998Z,4.55
2023-01-12T04:01:43.709Z,4.90
2023-01-12T04:04:11.724Z,4.60
2023-01-12T04:06:39.008Z,5.45
2023-01-12T04:09:06.292Z,6.90
2023-01-12T04:11:51.710Z,6.53
2023-01-12T04:16:47.009Z,4.75
2023-01-12T04:19:14.374Z,5.63
2023-01-12T04:22:00.020Z,5.20
2023-01-12T04:24:27.188Z,6.07
2023-01-12T04:26:54.655Z,5.57
2023-01-12T04:29:22.972Z,4.50
2023-01-12T04:31:50.476Z,7.95
2023-01-12T04:34:18.060Z,8.10
2023-01-12T04:36:45.260Z,4.80
2023-01-12T04:39:12.887Z,6.15
2023-01-12T04:41:39.969Z,8.95
2023-01-12T04:44:07.087Z,5.82
2023-01-12T04:46:34.372Z,6.32
2023-01-12T04:49:01.511Z,6.70
2023-01-12T04:51:29.397Z,6.15
2023-01-12T04:53:57.033Z,7.45
2023-01-12T04:56:24.580Z,8.05
2023-01-12T04:58:59.728Z,6.57
2023-01-12T05:01:30.409Z,5.50
2023-01-12T05:04:00.940Z,5.38
2023-01-12T05:06:29.352Z,5.70
2023-01-12T05:09:14.917Z,5.38
2023-01-12T05:14:09.981Z,7.80
2023-01-12T05:16:37.344Z,6.38
2023-01-12T05:19:04.538Z,7.40
2023-01-12T05:21:32.161Z,7.05
2023-01-12T05:24:06.687Z,5.93
2023-01-12T05:26:34.127Z,5.55
2023-01-12T05:29:04.771Z,6.53
2023-01-12T05:31:34.255Z,6.05
2023-01-12T05:34:01.612Z,9.00
2023-01-12T05:36:28.716Z,6.57
2023-01-12T05:38:56.129Z,5.20
2023-01-12T05:41:23.335Z,8.05
2023-01-12T05:43:50.535Z,5.53
2023-01-12T05:46:29.862Z,5.75
2023-01-12T05:48:58.042Z,6.57
2023-01-12T05:51:27.153Z,6.45
2023-01-12T05:53:55.483Z,7.32
2023-01-12T05:56:28.116Z,5.78
2023-01-12T05:58:58.637Z,5.45
2023-01-12T06:01:27.130Z,7.72
2023-01-12T06:03:56.941Z,8.23
2023-01-12T06:06:30.831Z,6.45
2023-01-12T06:08:59.277Z,6.00
2023-01-12T06:11:44.683Z,5.38
2023-01-12T06:14:12.217Z,6.05
2023-01-12T06:16:41.563Z,8.40
2023-01-12T06:19:12.355Z,7.40
2023-01-12T06:21:40.716Z,7.68
2023-01-12T06:24:08.391Z,7.57
2023-01-12T06:26:35.575Z,7.45
2023-01-12T06:29:05.606Z,7.05
2023-01-12T06:31:33.437Z,6.65
2023-01-12T06:34:00.659Z,6.57
2023-01-12T06:36:28.177Z,6.70
2023-01-12T06:38:55.553Z,8.15
2023-01-12T06:41:41.165Z,9.38
2023-01-12T06:44:08.387Z,7.88
2023-01-12T06:46:35.689Z,6.43
2023-01-12T06:49:04.620Z,9.35
2023-01-12T06:51:31.667Z,9.13
2023-01-12T06:53:59.120Z,7.80
2023-01-12T06:56:29.007Z,9.15
2023-01-12T06:58:57.230Z,11.63
2023-01-12T07:01:27.648Z,7.75
2023-01-12T07:03:55.108Z,7.15
2023-01-12T07:06:22.238Z,7.40
2023-01-12T07:08:49.770Z,9.88
2023-01-12T07:11:17.214Z,7.95
2023-01-12T07:13:44.729Z,8.43
2023-01-12T07:16:14.461Z,7.30
2023-01-12T07:18:41.857Z,8.43
2023-01-12T07:21:11.367Z,9.85
2023-01-12T07:23:38.624Z,11.95
2023-01-12T07:26:07.275Z,7.50
2023-01-12T07:28:34.779Z,6.80
2023-01-12T07:31:04.151Z,7.65
2023-01-12T07:33:31.906Z,6.18
2023-01-12T07:36:00.271Z,10.80
2023-01-12T07:38:31.781Z,8.57
2023-01-12T07:41:02.920Z,10.40
2023-01-12T07:43:33.712Z,9.82
2023-01-12T07:46:01.746Z,7.65
2023-01-12T07:48:29.182Z,6.93
2023-01-12T07:50:59.351Z,10.13
2023-01-12T07:53:26.894Z,8.35
2023-01-12T07:55:54.313Z,8.38
2023-01-12T07:58:21.474Z,8.38
2023-01-12T08:00:49.048Z,8.10
2023-01-12T08:03:16.277Z,9.00
2023-01-12T08:05:43.925Z,9.20
2023-01-12T08:08:11.457Z,9.00
2023-01-12T08:10:38.766Z,10.65
2023-01-12T08:13:06.814Z,6.95
2023-01-12T08:15:39.324Z,11.82
2023-01-12T08:18:13.177Z,9.80
2023-01-12T08:20:40.857Z,9.63
2023-01-12T08:23:19.733Z,10.95
2023-01-12T08:25:56.304Z,8.20
2023-01-12T08:28:33.947Z,10.68
2023-01-12T08:31:01.487Z,9.15
2023-01-12T08:33:29.613Z,9.43
2023-01-12T08:35:57.152Z,9.63
2023-01-12T08:38:24.476Z,8.50
2023-01-12T08:41:11.126Z,13.55
2023-01-12T08:43:56.927Z,9.38
2023-01-12T08:46:24.981Z,9.25
2023-01-12T08:48:54.128Z,6.38
2023-01-12T08:51:21.726Z,9.75
2023-01-12T08:53:49.513Z,8.75
2023-01-12T08:56:17.215Z,7.45
2023-01-12T08:58:44.748Z,11.82
2023-01-12T09:01:15.432Z,9.18
2023-01-12T09:03:44.619Z,8.05
2023-01-12T09:06:18.901Z,8.68
2023-01-12T09:08:47.316Z,12.57
2023-01-12T09:11:16.263Z,8.43
2023-01-12T09:13:44.180Z,11.10
2023-01-12T09:16:14.514Z,10.20
2023-01-12T09:18:43.061Z,11.85
2023-01-12T09:21:16.392Z,7.00
2023-01-12T09:23:50.433Z,16.65
2023-01-12T09:26:20.485Z,11.95
2023-01-12T09:28:48.229Z,7.80
2023-01-12T09:31:19.206Z,7.88
2023-01-12T09:33:47.397Z,8.93
2023-01-12T09:36:20.749Z,10.68
2023-01-12T09:38:49.894Z,9.85
2023-01-12T09:41:55.087Z,10.10
2023-01-12T09:45:01.318Z,10.13
2023-01-12T09:47:52.728Z,9.32
2023-01-12T09:50:24.150Z,10.68
2023-01-12T09:53:07.089Z,9.68
2023-01-12T09:55:48.222Z,9.95
2023-01-12T09:58:36.757Z,7.72
2023-01-12T10:01:20.481Z,6.80
2023-01-12T10:03:51.984Z,8.13
2023-01-12T10:06:20.781Z,6.80
2023-01-12T10:09:10.633Z,10.02
2023-01-12T10:12:03.648Z,7.35
2023-01-12T10:14:35.689Z,8.48
2023-01-12T10:17:09.101Z,10.35
2023-01-12T10:19:47.950Z,11.10
2023-01-12T10:22:37.299Z,10.55
2023-01-12T10:25:23.711Z,11.32
2023-01-12T10:27:54.141Z,6.25
2023-01-12T10:30:40.707Z,9.77
2023-01-12T10:33:23.832Z,9.88
2023-01-12T10:35:57.225Z,8.73
2023-01-12T10:38:50.767Z,10.82
2023-01-12T10:41:21.038Z,7.57
2023-01-12T10:44:16.844Z,9.00
2023-01-12T10:46:44.035Z,10.23
2023-01-12T10:49:23.276Z,16.50
2023-01-12T10:51:52.758Z,11.23
2023-01-12T10:54:25.595Z,7.38
2023-01-12T10:57:04.069Z,8.85
2023-01-12T10:59:34.227Z,12.98
2023-01-12T11:02:08.619Z,9.20
2023-01-12T11:04:50.158Z,8.00
2023-01-12T11:07:29.040Z,7.95
2023-01-12T11:10:19.281Z,9.80
2023-01-12T11:12:59.194Z,6.85
2023-01-12T11:15:28.696Z,11.85
2023-01-12T11:18:21.927Z,6.32
2023-01-12T11:21:15.841Z,8.27
2023-01-12T11:24:06.036Z,8.43
2023-01-12T11:26:43.619Z,7.57
2023-01-12T11:29:38.945Z,8.52
2023-01-12T11:32:21.104Z,6.65
2023-01-12T11:34:57.188Z,9.73
2023-01-12T11:37:24.538Z,9.77
2023-01-12T11:40:17.326Z,7.93
2023-01-12T11:43:03.929Z,7.43
2023-01-12T11:45:49.196Z,6.40
2023-01-12T11:48:43.648Z,10.60
2023-01-12T11:51:13.952Z,10.93
2023-01-12T11:53:41.799Z,10.23
2023-01-12T11:56:15.063Z,9.13
2023-01-12T11:59:05.757Z,8.38
2023-01-12T12:02:00.363Z,9.23
2023-01-12T12:04:36.688Z,9.13
2023-01-12T12:07:32.538Z,10.55
2023-01-12T12:10:47.412Z,7.25
2023-01-12T12:13:26.651Z,9.88
2023-01-12T12:16:01.316Z,12.77
2023-01-12T12:18:31.883Z,9.50
2023-01-12T12:21:21.969Z,9.40
2023-01-12T12:24:15.920Z,6.72
2023-01-12T12:26:51.427Z,7.97
2023-01-12T12:29:41.096Z,10.50
2023-01-12T12:32:43.591Z,8.98
2023-01-12T12:35:36.100Z,8.20
2023-01-12T12:38:38.661Z,9.95
2023-01-12T12:41:46.113Z,7.40
2023-01-12T12:44:41.013Z,8.27
2023-01-12T12:47:41.776Z,8.23
2023-01-12T12:50:31.914Z,15.05
2023-01-12T12:53:34.027Z,9.85
2023-01-12T12:56:22.089Z,9.20
2023-01-12T12:58:51.722Z,10.75
2023-01-12T13:01:25.953Z,7.80
2023-01-12T13:04:39.929Z,6.63
2023-01-12T13:07:07.368Z,5.60
2023-01-12T13:09:37.261Z,8.23
2023-01-12T13:12:34.614Z,9.68
2023-01-12T13:15:24.789Z,7.20
2023-01-12T13:17:54.546Z,8.40
2023-01-12T13:20:53.577Z,11.23
2023-01-12T13:23:42.859Z,12.50
2023-01-12T13:26:47.208Z,8.05
2023-01-12T13:29:23.330Z,9.30
2023-01-12T13:31:52.849Z,7.10
2023-01-12T13:34:32.294Z,6.03
2023-01-12T13:37:21.339Z,7.60
2023-01-12T13:40:13.683Z,8.93
2023-01-12T13:42:59.266Z,11.13
2023-01-12T13:45:27.467Z,10.23
2023-01-12T13:47:54.622Z,8.73
2023-01-12T13:50:27.746Z,5.93
2023-01-12T13:53:04.003Z,10.35
2023-01-12T13:55:35.663Z,8.95
2023-01-12T13:58:17.742Z,8.38
2023-01-12T14:00:58.143Z,9.20
2023-01-12T14:03:28.672Z,13.07
2023-01-12T14:06:23.261Z,9.80
2023-01-12T14:08:59.747Z,11.45
2023-01-12T14:11:33.095Z,9.70
2023-01-12T14:14:50.884Z,9.27
2023-01-12T14:17:45.113Z,12.43
2023-01-12T14:20:16.044Z,9.77
2023-01-12T14:22:49.577Z,9.15
2023-01-12T14:25:23.198Z,7.90
2023-01-12T14:28:01.642Z,8.00
2023-01-12T14:30:29.681Z,10.70
2023-01-12T14:32:56.874Z,10.80
2023-01-12T14:35:25.922Z,10.10
2023-01-12T14:37:59.909Z,12.68
2023-01-12T14:40:34.668Z,13.93
2023-01-12T14:43:25.740Z,9.82
2023-01-12T14:46:21.418Z,11.32
2023-01-12T14:49:03.675Z,9.02
2023-01-12T14:51:38.034Z,12.02
2023-01-12T14:54:06.407Z,9.38
2023-01-12T14:56:44.550Z,8.75
2023-01-12T14:59:24.856Z,8.27
2023-01-12T15:01:54.112Z,7.97
2023-01-12T15:04:25.437Z,11.45
2023-01-12T15:07:06.713Z,10.40
2023-01-12T15:09:37.244Z,12.85
2023-01-12T15:12:40.659Z,10.93
2023-01-12T15:15:18.307Z,11.10
2023-01-12T15:18:04.371Z,14.15
2023-01-12T15:20:53.836Z,11.15
2023-01-12T15:23:46.042Z,7.60
2023-01-12T15:26:13.977Z,9.77
2023-01-12T15:28:42.020Z,11.40
2023-01-12T15:31:32.296Z,13.30
2023-01-12T15:34:00.982Z,13.50
2023-01-12T15:36:29.254Z,11.30
2023-01-12T15:38:56.871Z,11.90
2023-01-12T15:41:46.662Z,8.10
2023-01-12T15:44:15.017Z,11.00
2023-01-12T15:46:50.466Z,9.50
2023-01-12T15:49:28.438Z,13.85
2023-01-12T15:52:03.375Z,10.07
2023-01-12T15:54:32.019Z,11.18
2023-01-12T15:57:01.441Z,10.23
2023-01-12T15:59:28.968Z,10.18
2023-01-12T16:01:56.393Z,14.70
2023-01-12T16:04:44.130Z,7.70
2023-01-12T16:07:14.023Z,9.00
2023-01-12T16:09:45.912Z,15.63
2023-01-12T16:12:13.617Z,10.45
2023-01-12T16:14:41.023Z,10.82
2023-01-12T16:17:08.369Z,7.60
2023-01-12T16:19:41.667Z,12.15
2023-01-12T16:22:21.673Z,9.70
2023-01-12T16:24:50.113Z,10.00
2023-01-12T16:27:18.294Z,14.27
2023-01-12T16:29:45.941Z,13.00
2023-01-12T16:32:25.299Z,12.57
2023-01-12T16:34:53.068Z,11.85
2023-01-12T16:37:23.247Z,10.07
2023-01-12T16:39:55.640Z,11.63
2023-01-12T16:42:23.573Z,15.27
2023-01-12T16:44:51.367Z,12.45
2023-01-12T16:47:22.255Z,12.10
2023-01-12T16:49:51.198Z,9.50
2023-01-12T16:52:25.898Z,10.05
2023-01-12T16:54:58.380Z,13.35
2023-01-12T16:57:41.899Z,11.65
2023-01-12T17:00:13.934Z,13.18
2023-01-12T17:02:42.479Z,11.50
2023-01-12T17:05:10.570Z,12.27
2023-01-12T17:07:43.044Z,16.95
2023-01-12T17:10:11.049Z,11.88
2023-01-12T17:12:38.798Z,12.07
2023-01-12T17:15:21.681Z,10.63
2023-01-12T17:17:50.266Z,12.70
2023-01-12T17:20:18.193Z,8.25
2023-01-12T17:22:46.434Z,11.88
2023-01-12T17:25:17.764Z,11.23
2023-01-12T17:27:50.726Z,10.98
2023-01-12T17:30:23.688Z,14.48
2023-01-12T17:32:53.509Z,13.40
2023-01-12T17:35:22.587Z,15.55
2023-01-12T17:37:54.966Z,13.85
2023-01-12T17:40:22.673Z,13.00
2023-01-12T17:43:07.824Z,14.95
2023-01-12T17:45:43.801Z,18.40
2023-01-12T17:48:12.238Z,15.43
2023-01-12T17:50:40.625Z,10.38
2023-01-12T17:53:11.037Z,10.38
2023-01-12T17:55:48.332Z,12.25
2023-01-12T17:58:19.136Z,13.75
2023-01-12T18:00:46.754Z,14.75
2023-01-12T18:03:13.898Z,9.98
2023-01-12T18:05:47.085Z,12.30
2023-01-12T18:09:36.883Z,14.07
2023-01-12T18:12:46.057Z,15.02
2023-01-12T18:15:48.177Z,11.73
2023-01-12T18:18:15.782Z,18.40
2023-01-12T18:21:01.490Z,13.82
2023-01-12T18:23:45.034Z,11.32
2023-01-12T18:26:15.519Z,19.02
2023-01-12T18:28:48.873Z,15.57
2023-01-12T18:31:22.412Z,12.20
2023-01-12T18:33:55.839Z,12.55
2023-01-12T18:36:26.620Z,21.45
2023-01-12T18:39:01.633Z,14.05
2023-01-12T18:41:49.829Z,18.83
2023-01-12T18:44:26.368Z,15.13
2023-01-12T18:47:16.859Z,15.93
2023-01-12T18:50:05.766Z,14.68
2023-01-12T18:52:51.636Z,18.60
2023-01-12T18:55:19.425Z,15.68
2023-01-12T18:57:46.720Z,14.15
2023-01-12T19:00:17.939Z,16.20
2023-01-12T19:02:45.746Z,13.88
2023-01-12T19:05:17.086Z,12.40
2023-01-12T19:08:03.711Z,21.92
2023-01-12T19:10:32.675Z,13.65
2023-01-12T19:13:18.123Z,11.15
2023-01-12T19:18:41.198Z,13.10
2023-01-12T19:21:27.609Z,14.93
2023-01-12T19:24:14.269Z,14.90
2023-01-12T19:27:00.219Z,14.70
2023-01-12T19:29:28.921Z,14.13
2023-01-12T19:31:56.292Z,12.82
2023-01-12T19:34:25.038Z,14.25
2023-01-12T19:36:55.425Z,8.25
2023-01-12T19:39:49.485Z,17.45
2023-01-12T19:42:51.051Z,16.92
2023-01-12T19:45:18.545Z,16.52
2023-01-12T19:47:45.770Z,16.45
2023-01-12T19:50:14.971Z,19.10
2023-01-12T19:52:43.261Z,17.25
2023-01-12T19:55:13.159Z,17.08
2023-01-12T19:57:41.051Z,11.98
2023-01-12T20:00:16.718Z,16.42
2023-01-12T20:02:45.023Z,18.42
2023-01-12T20:05:22.131Z,15.85
2023-01-12T20:07:54.600Z,15.07
2023-01-12T20:10:25.060Z,13.57
2023-01-12T20:12:55.515Z,18.02
2023-01-12T20:15:23.587Z,15.27
2023-01-12T20:17:51.158Z,12.18
2023-01-12T20:20:18.780Z,17.08
2023-01-12T20:22:49.027Z,14.38
2023-01-12T20:25:17.184Z,21.30
2023-01-12T20:27:46.445Z,15.07
2023-01-12T20:30:16.408Z,15.57
2023-01-12T20:32:46.719Z,18.40
2023-01-12T20:35:25.993Z,15.20
2023-01-12T20:37:54.673Z,18.15
2023-01-12T20:40:21.864Z,13.10
2023-01-12T20:42:49.318Z,13.98
2023-01-12T20:45:17.183Z,13.95
2023-01-12T20:47:44.267Z,13.38
2023-01-12T20:50:13.778Z,13.30
2023-01-12T20:52:41.920Z,14.73
2023-01-12T20:55:09.624Z,12.30
2023-01-12T20:57:41.851Z,18.45
2023-01-12T21:00:10.391Z,19.58
2023-01-12T21:02:37.722Z,11.63
2023-01-12T21:05:05.545Z,16.33
2023-01-12T21:07:38.151Z,19.42
2023-01-12T21:10:07.382Z,12.18
2023-01-12T21:12:35.064Z,17.05
2023-01-12T21:15:02.344Z,11.23
2023-01-12T21:17:33.235Z,14.77
2023-01-12T21:20:00.564Z,12.50
2023-01-12T21:22:29.538Z,14.13
2023-01-12T21:24:57.054Z,16.30
2023-01-12T21:27:24.424Z,15.27
2023-01-12T21:29:52.051Z,14.05
2023-01-12T21:32:19.225Z,15.18
2023-01-12T21:34:48.970Z,12.63
2023-01-12T21:37:17.813Z,14.90
2023-01-12T21:39:44.990Z,14.43
2023-01-12T21:42:31.557Z,13.40
2023-01-12T21:44:58.993Z,13.00
2023-01-12T21:47:26.632Z,13.88
2023-01-12T21:49:54.140Z,14.73
2023-01-12T21:52:21.524Z,14.27
2023-01-12T21:54:50.067Z,12.13
2023-01-12T21:57:18.082Z,14.60
2023-01-12T21:59:45.855Z,14.13
2023-01-12T22:02:13.774Z,13.82
2023-01-12T22:04:41.886Z,16.83
2023-01-12T22:07:10.857Z,15.32
2023-01-12T22:09:37.946Z,12.27
2023-01-12T22:12:07.906Z,12.40
2023-01-12T22:14:35.493Z,13.73
2023-01-12T22:17:04.168Z,21.55
2023-01-12T22:19:32.491Z,14.85
2023-01-12T22:22:01.427Z,12.18
2023-01-12T22:24:28.596Z,16.85
2023-01-12T22:26:55.672Z,18.67
2023-01-12T22:29:24.337Z,16.60
2023-01-12T22:31:53.161Z,17.83
2023-01-12T22:34:20.489Z,18.17
2023-01-12T22:36:48.313Z,20.88
2023-01-12T22:39:15.720Z,15.77
2023-01-12T22:41:42.947Z,14.40
2023-01-12T22:44:10.380Z,13.35
2023-01-12T22:46:39.130Z,14.32
2023-01-12T22:49:07.490Z,12.60
2023-01-12T22:51:34.785Z,18.02
2023-01-12T22:54:02.989Z,16.48
2023-01-12T22:56:30.495Z,15.35
2023-01-12T22:58:58.016Z,15.93
2023-01-12T23:01:26.284Z,20.25
2023-01-12T23:03:55.168Z,16.50
2023-01-12T23:06:23.356Z,15.82
2023-01-12T23:08:52.372Z,15.07
2023-01-12T23:11:23.774Z,16.23
2023-01-12T23:13:51.793Z,14.82
2023-01-12T23:16:20.226Z,15.85
2023-01-12T23:18:48.590Z,17.50
2023-01-12T23:21:25.394Z,16.48
2023-01-12T23:23:55.420Z,15.50
2023-01-12T23:26:26.045Z,18.90
2023-01-12T23:28:56.445Z,14.77
2023-01-12T23:31:26.790Z,18.85
2023-01-12T23:33:54.403Z,12.75
2023-01-12T23:36:24.675Z,15.55
2023-01-12T23:39:00.760Z,20.45
2023-01-12T23:41:31.120Z,18.13
2023-01-12T23:44:00.910Z,13.23
2023-01-12T23:46:30.575Z,18.10
2023-01-12T23:49:00.255Z,15.05
2023-01-12T23:51:29.256Z,14.98
2023-01-12T23:53:59.549Z,17.27
2023-01-12T23:56:29.345Z,14.68
2023-01-12T23:58:56.935Z,17.02
